sensor_id;sensor_type;location;lat;lon;timestamp;temperature;humidity
10314;DHT22;5202;49.138;10.090;2023-06-10T00:00:48;18.10;82.00
10314;DHT22;5202;49.138;10.090;2023-06-10T00:03:17;18.10;82.30
10314;DHT22;5202;49.138;10.090;2023-06-10T00:05:46;18.00;82.70
10314;DHT22;5202;49.138;10.090;2023-06-10T00:08:15;18.00;83.00
10314;DHT22;5202;49.138;10.090;2023-06-10T00:10:46;17.90;83.50
10314;DHT22;5202;49.138;10.090;2023-06-10T00:13:14;17.90;83.90
10314;DHT22;5202;49.138;10.090;2023-06-10T00:15:43;17.90;84.20
10314;DHT22;5202;49.138;10.090;2023-06-10T00:18:13;17.90;84.70
10314;DHT22;5202;49.138;10.090;2023-06-10T00:20:41;17.90;84.70
10314;DHT22;5202;49.138;10.090;2023-06-10T00:23:09;18.00;84.70
10314;DHT22;5202;49.138;10.090;2023-06-10T00:25:38;17.90;84.60
10314;DHT22;5202;49.138;10.090;2023-06-10T00:28:06;17.90;84.60
10314;DHT22;5202;49.138;10.090;2023-06-10T00:30:35;17.90;84.80
10314;DHT22;5202;49.138;10.090;2023-06-10T00:33:03;17.90;85.00
10314;DHT22;5202;49.138;10.090;2023-06-10T00:35:35;17.90;85.30
10314;DHT22;5202;49.138;10.090;2023-06-10T00:38:04;17.80;85.40
10314;DHT22;5202;49.138;10.090;2023-06-10T00:40:33;17.80;85.60
10314;DHT22;5202;49.138;10.090;2023-06-10T00:43:07;17.70;85.80
10314;DHT22;5202;49.138;10.090;2023-06-10T00:45:35;17.70;86.00
10314;DHT22;5202;49.138;10.090;2023-06-10T00:48:04;17.70;86.30
10314;DHT22;5202;49.138;10.090;2023-06-10T00:50:34;17.60;86.40
10314;DHT22;5202;49.138;10.090;2023-06-10T00:53:06;17.60;86.80
10314;DHT22;5202;49.138;10.090;2023-06-10T00:55:35;17.60;87.00
10314;DHT22;5202;49.138;10.090;2023-06-10T00:58:05;17.60;87.20
10314;DHT22;5202;49.138;10.090;2023-06-10T01:00:33;17.50;87.40
10314;DHT22;5202;49.138;10.090;2023-06-10T01:03:05;17.50;87.40
10314;DHT22;5202;49.138;10.090;2023-06-10T01:05:37;17.50;87.40
10314;DHT22;5202;49.138;10.090;2023-06-10T01:08:09;17.50;87.60
10314;DHT22;5202;49.138;10.090;2023-06-10T01:10:51;17.50;88.00
10314;DHT22;5202;49.138;10.090;2023-06-10T01:13:23;17.40;88.00
10314;DHT22;5202;49.138;10.090;2023-06-10T01:15:57;17.40;88.10
10314;DHT22;5202;49.138;10.090;2023-06-10T01:18:30;17.40;88.40
10314;DHT22;5202;49.138;10.090;2023-06-10T01:21:00;17.40;88.60
10314;DHT22;5202;49.138;10.090;2023-06-10T01:23:30;17.40;89.10
10314;DHT22;5202;49.138;10.090;2023-06-10T01:26:02;17.30;89.10
10314;DHT22;5202;49.138;10.090;2023-06-10T01:28:38;17.20;89.60
10314;DHT22;5202;49.138;10.090;2023-06-10T01:31:15;17.20;90.20
10314;DHT22;5202;49.138;10.090;2023-06-10T01:33:47;17.10;90.20
10314;DHT22;5202;49.138;10.090;2023-06-10T01:36:18;17.10;90.50
10314;DHT22;5202;49.138;10.090;2023-06-10T01:38:51;17.10;90.60
10314;DHT22;5202;49.138;10.090;2023-06-10T01:41:21;17.10;90.70
10314;DHT22;5202;49.138;10.090;2023-06-10T01:43:50;17.10;90.90
10314;DHT22;5202;49.138;10.090;2023-06-10T01:46:18;17.00;91.00
10314;DHT22;5202;49.138;10.090;2023-06-10T01:48:48;17.00;91.10
10314;DHT22;5202;49.138;10.090;2023-06-10T01:51:17;17.00;91.20
10314;DHT22;5202;49.138;10.090;2023-06-10T01:53:45;16.90;91.70
10314;DHT22;5202;49.138;10.090;2023-06-10T01:56:15;16.80;91.50
10314;DHT22;5202;49.138;10.090;2023-06-10T01:58:45;16.80;91.70
10314;DHT22;5202;49.138;10.090;2023-06-10T02:01:14;16.70;91.90
10314;DHT22;5202;49.138;10.090;2023-06-10T02:04:16;16.60;92.10
10314;DHT22;5202;49.138;10.090;2023-06-10T02:07:10;16.60;92.10
10314;DHT22;5202;49.138;10.090;2023-06-10T02:09:39;16.50;92.30
10314;DHT22;5202;49.138;10.090;2023-06-10T02:12:09;16.60;92.50
10314;DHT22;5202;49.138;10.090;2023-06-10T02:14:38;16.60;92.60
10314;DHT22;5202;49.138;10.090;2023-06-10T02:17:06;16.50;92.70
10314;DHT22;5202;49.138;10.090;2023-06-10T02:19:41;16.50;92.80
10314;DHT22;5202;49.138;10.090;2023-06-10T02:22:10;16.50;93.00
10314;DHT22;5202;49.138;10.090;2023-06-10T02:24:38;16.40;93.10
10314;DHT22;5202;49.138;10.090;2023-06-10T02:27:06;16.40;93.30
10314;DHT22;5202;49.138;10.090;2023-06-10T02:29:36;16.40;93.40
10314;DHT22;5202;49.138;10.090;2023-06-10T02:32:05;16.30;93.40
10314;DHT22;5202;49.138;10.090;2023-06-10T02:34:37;16.30;93.70
10314;DHT22;5202;49.138;10.090;2023-06-10T02:37:06;16.20;93.80
10314;DHT22;5202;49.138;10.090;2023-06-10T02:39:35;16.20;93.90
10314;DHT22;5202;49.138;10.090;2023-06-10T02:42:07;16.20;94.20
10314;DHT22;5202;49.138;10.090;2023-06-10T02:44:38;16.20;94.30
10314;DHT22;5202;49.138;10.090;2023-06-10T02:47:11;16.20;94.40
10314;DHT22;5202;49.138;10.090;2023-06-10T02:49:39;16.20;94.60
10314;DHT22;5202;49.138;10.090;2023-06-10T02:52:09;16.10;94.70
10314;DHT22;5202;49.138;10.090;2023-06-10T02:54:38;16.20;94.70
10314;DHT22;5202;49.138;10.090;2023-06-10T02:57:08;16.20;95.00
10314;DHT22;5202;49.138;10.090;2023-06-10T02:59:38;16.20;95.10
10314;DHT22;5202;49.138;10.090;2023-06-10T03:02:07;16.20;95.00
10314;DHT22;5202;49.138;10.090;2023-06-10T03:04:42;16.30;95.20
10314;DHT22;5202;49.138;10.090;2023-06-10T03:07:15;16.30;95.20
10314;DHT22;5202;49.138;10.090;2023-06-10T03:09:43;16.30;95.30
10314;DHT22;5202;49.138;10.090;2023-06-10T03:12:13;16.30;95.30
10314;DHT22;5202;49.138;10.090;2023-06-10T03:14:47;16.20;95.30
10314;DHT22;5202;49.138;10.090;2023-06-10T03:17:20;16.10;95.70
10314;DHT22;5202;49.138;10.090;2023-06-10T03:19:49;16.00;95.90
10314;DHT22;5202;49.138;10.090;2023-06-10T03:22:17;16.00;96.00
10314;DHT22;5202;49.138;10.090;2023-06-10T03:24:54;16.00;96.10
10314;DHT22;5202;49.138;10.090;2023-06-10T03:27:24;16.00;96.20
10314;DHT22;5202;49.138;10.090;2023-06-10T03:30:00;16.00;96.40
10314;DHT22;5202;49.138;10.090;2023-06-10T03:32:52;15.90;96.60
10314;DHT22;5202;49.138;10.090;2023-06-10T03:35:24;15.90;96.80
10314;DHT22;5202;49.138;10.090;2023-06-10T03:37:52;15.80;96.70
10314;DHT22;5202;49.138;10.090;2023-06-10T03:40:21;15.80;97.00
10314;DHT22;5202;49.138;10.090;2023-06-10T03:42:49;15.80;97.10
10314;DHT22;5202;49.138;10.090;2023-06-10T03:45:19;15.80;97.30
10314;DHT22;5202;49.138;10.090;2023-06-10T03:47:48;15.80;97.60
10314;DHT22;5202;49.138;10.090;2023-06-10T03:50:21;15.80;97.50
10314;DHT22;5202;49.138;10.090;2023-06-10T03:52:51;15.80;97.70
10314;DHT22;5202;49.138;10.090;2023-06-10T03:55:23;15.80;97.30
10314;DHT22;5202;49.138;10.090;2023-06-10T03:57:53;15.70;97.20
10314;DHT22;5202;49.138;10.090;2023-06-10T04:00:23;15.60;97.40
10314;DHT22;5202;49.138;10.090;2023-06-10T04:02:51;15.60;97.60
10314;DHT22;5202;49.138;10.090;2023-06-10T04:05:38;15.50;98.20
10314;DHT22;5202;49.138;10.090;2023-06-10T04:08:06;15.50;98.50
10314;DHT22;5202;49.138;10.090;2023-06-10T04:10:35;15.50;98.40
10314;DHT22;5202;49.138;10.090;2023-06-10T04:13:03;15.60;98.50
10314;DHT22;5202;49.138;10.090;2023-06-10T04:15:39;15.60;98.50
10314;DHT22;5202;49.138;10.090;2023-06-10T04:18:12;15.70;98.80
10314;DHT22;5202;49.138;10.090;2023-06-10T04:20:40;15.80;98.40
10314;DHT22;5202;49.138;10.090;2023-06-10T04:23:09;15.90;98.40
10314;DHT22;5202;49.138;10.090;2023-06-10T04:25:39;16.00;98.30
10314;DHT22;5202;49.138;10.090;2023-06-10T04:28:08;16.00;98.20
10314;DHT22;5202;49.138;10.090;2023-06-10T04:30:36;16.10;98.60
10314;DHT22;5202;49.138;10.090;2023-06-10T04:33:06;16.10;98.50
10314;DHT22;5202;49.138;10.090;2023-06-10T04:35:36;16.20;98.60
10314;DHT22;5202;49.138;10.090;2023-06-10T04:38:07;16.30;98.80
10314;DHT22;5202;49.138;10.090;2023-06-10T04:40:35;16.40;99.20
10314;DHT22;5202;49.138;10.090;2023-06-10T04:43:04;16.40;99.30
10314;DHT22;5202;49.138;10.090;2023-06-10T04:45:33;16.50;99.40
10314;DHT22;5202;49.138;10.090;2023-06-10T04:48:03;16.60;99.30
10314;DHT22;5202;49.138;10.090;2023-06-10T04:50:32;16.70;99.60
10314;DHT22;5202;49.138;10.090;2023-06-10T04:53:00;16.80;99.40
10314;DHT22;5202;49.138;10.090;2023-06-10T04:55:29;16.90;98.70
10314;DHT22;5202;49.138;10.090;2023-06-10T04:57:57;17.00;99.00
10314;DHT22;5202;49.138;10.090;2023-06-10T05:00:26;17.10;98.60
10314;DHT22;5202;49.138;10.090;2023-06-10T05:02:54;17.10;98.10
10314;DHT22;5202;49.138;10.090;2023-06-10T05:05:24;17.20;97.80
10314;DHT22;5202;49.138;10.090;2023-06-10T05:07:53;17.20;97.90
10314;DHT22;5202;49.138;10.090;2023-06-10T05:10:21;17.40;97.80
10314;DHT22;5202;49.138;10.090;2023-06-10T05:12:49;17.50;97.50
10314;DHT22;5202;49.138;10.090;2023-06-10T05:15:18;17.60;97.30
10314;DHT22;5202;49.138;10.090;2023-06-10T05:17:46;17.60;97.40
10314;DHT22;5202;49.138;10.090;2023-06-10T05:20:14;17.70;97.60
10314;DHT22;5202;49.138;10.090;2023-06-10T05:22:44;17.70;97.70
10314;DHT22;5202;49.138;10.090;2023-06-10T05:25:13;17.80;98.00
10314;DHT22;5202;49.138;10.090;2023-06-10T05:27:41;18.00;98.00
10314;DHT22;5202;49.138;10.090;2023-06-10T05:30:10;18.10;97.70
10314;DHT22;5202;49.138;10.090;2023-06-10T05:32:39;18.30;97.40
10314;DHT22;5202;49.138;10.090;2023-06-10T05:35:08;18.40;97.20
10314;DHT22;5202;49.138;10.090;2023-06-10T05:37:37;18.50;97.10
10314;DHT22;5202;49.138;10.090;2023-06-10T05:40:08;18.60;97.00
10314;DHT22;5202;49.138;10.090;2023-06-10T05:42:36;18.80;97.40
10314;DHT22;5202;49.138;10.090;2023-06-10T05:45:06;18.90;97.10
10314;DHT22;5202;49.138;10.090;2023-06-10T05:47:35;19.00;97.30
10314;DHT22;5202;49.138;10.090;2023-06-10T05:50:04;19.10;97.00
10314;DHT22;5202;49.138;10.090;2023-06-10T05:52:34;19.10;96.80
10314;DHT22;5202;49.138;10.090;2023-06-10T05:55:02;19.10;96.70
10314;DHT22;5202;49.138;10.090;2023-06-10T05:57:32;19.20;96.70
10314;DHT22;5202;49.138;10.090;2023-06-10T06:00:00;19.30;96.60
10314;DHT22;5202;49.138;10.090;2023-06-10T06:02:38;19.40;96.50
10314;DHT22;5202;49.138;10.090;2023-06-10T06:05:12;19.50;96.50
10314;DHT22;5202;49.138;10.090;2023-06-10T06:07:41;19.70;96.40
10314;DHT22;5202;49.138;10.090;2023-06-10T06:10:09;19.80;96.10
10314;DHT22;5202;49.138;10.090;2023-06-10T06:12:39;19.90;96.00
10314;DHT22;5202;49.138;10.090;2023-06-10T06:15:09;20.00;95.70
10314;DHT22;5202;49.138;10.090;2023-06-10T06:17:38;20.10;95.30
10314;DHT22;5202;49.138;10.090;2023-06-10T06:20:07;20.20;95.50
10314;DHT22;5202;49.138;10.090;2023-06-10T06:22:36;20.30;95.00
10314;DHT22;5202;49.138;10.090;2023-06-10T06:25:05;20.40;95.00
10314;DHT22;5202;49.138;10.090;2023-06-10T06:27:36;20.40;94.80
10314;DHT22;5202;49.138;10.090;2023-06-10T06:30:07;20.50;94.90
10314;DHT22;5202;49.138;10.090;2023-06-10T06:32:36;20.60;94.50
10314;DHT22;5202;49.138;10.090;2023-06-10T06:35:05;20.70;94.20
10314;DHT22;5202;49.138;10.090;2023-06-10T06:37:36;20.80;93.90
10314;DHT22;5202;49.138;10.090;2023-06-10T06:40:15;20.90;94.40
10314;DHT22;5202;49.138;10.090;2023-06-10T06:42:44;21.10;94.10
10314;DHT22;5202;49.138;10.090;2023-06-10T06:45:22;21.20;93.90
10314;DHT22;5202;49.138;10.090;2023-06-10T06:47:51;21.30;93.30
10314;DHT22;5202;49.138;10.090;2023-06-10T06:50:19;21.30;93.10
10314;DHT22;5202;49.138;10.090;2023-06-10T06:52:47;21.40;92.80
10314;DHT22;5202;49.138;10.090;2023-06-10T06:55:16;21.40;92.60
10314;DHT22;5202;49.138;10.090;2023-06-10T06:57:45;21.50;92.70
10314;DHT22;5202;49.138;10.090;2023-06-10T07:00:13;21.60;92.80
10314;DHT22;5202;49.138;10.090;2023-06-10T07:02:43;21.70;92.80
10314;DHT22;5202;49.138;10.090;2023-06-10T07:05:12;21.80;92.40
10314;DHT22;5202;49.138;10.090;2023-06-10T07:07:40;21.90;92.40
10314;DHT22;5202;49.138;10.090;2023-06-10T07:10:10;22.10;91.50
10314;DHT22;5202;49.138;10.090;2023-06-10T07:12:39;22.20;90.90
10314;DHT22;5202;49.138;10.090;2023-06-10T07:15:08;22.30;90.50
10314;DHT22;5202;49.138;10.090;2023-06-10T07:17:37;22.40;90.50
10314;DHT22;5202;49.138;10.090;2023-06-10T07:20:07;22.50;89.90
10314;DHT22;5202;49.138;10.090;2023-06-10T07:22:36;22.50;90.20
10314;DHT22;5202;49.138;10.090;2023-06-10T07:25:06;22.60;90.00
10314;DHT22;5202;49.138;10.090;2023-06-10T07:27:36;22.60;90.00
10314;DHT22;5202;49.138;10.090;2023-06-10T07:30:06;22.70;90.40
10314;DHT22;5202;49.138;10.090;2023-06-10T07:32:35;22.80;90.50
10314;DHT22;5202;49.138;10.090;2023-06-10T07:35:08;22.90;90.00
10314;DHT22;5202;49.138;10.090;2023-06-10T07:37:37;23.00;90.20
10314;DHT22;5202;49.138;10.090;2023-06-10T07:40:06;23.00;88.40
10314;DHT22;5202;49.138;10.090;2023-06-10T07:42:35;23.00;88.40
10314;DHT22;5202;49.138;10.090;2023-06-10T07:45:05;23.10;89.30
10314;DHT22;5202;49.138;10.090;2023-06-10T07:47:34;23.10;88.20
10314;DHT22;5202;49.138;10.090;2023-06-10T07:50:03;23.10;88.40
10314;DHT22;5202;49.138;10.090;2023-06-10T07:52:33;23.10;87.60
10314;DHT22;5202;49.138;10.090;2023-06-10T07:55:04;23.20;89.60
10314;DHT22;5202;49.138;10.090;2023-06-10T07:57:33;23.30;88.00
10314;DHT22;5202;49.138;10.090;2023-06-10T08:00:04;23.40;87.00
10314;DHT22;5202;49.138;10.090;2023-06-10T08:02:39;23.40;86.40
10314;DHT22;5202;49.138;10.090;2023-06-10T08:05:15;23.50;87.40
10314;DHT22;5202;49.138;10.090;2023-06-10T08:07:55;23.60;86.60
10314;DHT22;5202;49.138;10.090;2023-06-10T08:10:51;23.70;85.20
10314;DHT22;5202;49.138;10.090;2023-06-10T08:13:19;23.70;85.30
10314;DHT22;5202;49.138;10.090;2023-06-10T08:15:48;23.80;86.10
10314;DHT22;5202;49.138;10.090;2023-06-10T08:18:17;23.90;87.40
10314;DHT22;5202;49.138;10.090;2023-06-10T08:20:45;24.10;85.10
10314;DHT22;5202;49.138;10.090;2023-06-10T08:23:15;24.20;86.40
10314;DHT22;5202;49.138;10.090;2023-06-10T08:25:43;24.20;85.90
10314;DHT22;5202;49.138;10.090;2023-06-10T08:28:11;24.40;84.20
10314;DHT22;5202;49.138;10.090;2023-06-10T08:30:40;24.60;82.70
10314;DHT22;5202;49.138;10.090;2023-06-10T08:33:08;24.60;81.70
10314;DHT22;5202;49.138;10.090;2023-06-10T08:35:39;24.70;84.00
10314;DHT22;5202;49.138;10.090;2023-06-10T08:38:07;24.80;84.70
10314;DHT22;5202;49.138;10.090;2023-06-10T08:40:37;24.80;83.80
10314;DHT22;5202;49.138;10.090;2023-06-10T08:43:06;25.00;82.30
10314;DHT22;5202;49.138;10.090;2023-06-10T08:45:37;25.10;83.30
10314;DHT22;5202;49.138;10.090;2023-06-10T08:48:06;25.30;82.30
10314;DHT22;5202;49.138;10.090;2023-06-10T08:50:38;25.30;81.10
10314;DHT22;5202;49.138;10.090;2023-06-10T08:53:07;25.40;81.50
10314;DHT22;5202;49.138;10.090;2023-06-10T08:55:38;25.50;81.00
10314;DHT22;5202;49.138;10.090;2023-06-10T08:58:11;25.60;79.40
10314;DHT22;5202;49.138;10.090;2023-06-10T09:00:41;25.60;79.10
10314;DHT22;5202;49.138;10.090;2023-06-10T09:03:09;25.60;79.70
10314;DHT22;5202;49.138;10.090;2023-06-10T09:05:39;25.60;77.20
10314;DHT22;5202;49.138;10.090;2023-06-10T09:08:07;25.70;76.50
10314;DHT22;5202;49.138;10.090;2023-06-10T09:10:38;25.80;79.70
10314;DHT22;5202;49.138;10.090;2023-06-10T09:13:06;25.90;78.40
10314;DHT22;5202;49.138;10.090;2023-06-10T09:15:34;26.00;77.60
10314;DHT22;5202;49.138;10.090;2023-06-10T09:18:03;26.00;77.00
10314;DHT22;5202;49.138;10.090;2023-06-10T09:20:32;26.10;73.60
10314;DHT22;5202;49.138;10.090;2023-06-10T09:23:01;26.20;74.20
10314;DHT22;5202;49.138;10.090;2023-06-10T09:25:35;26.20;75.10
10314;DHT22;5202;49.138;10.090;2023-06-10T09:28:13;26.30;76.00
10314;DHT22;5202;49.138;10.090;2023-06-10T09:30:41;26.30;72.30
10314;DHT22;5202;49.138;10.090;2023-06-10T09:33:11;26.30;73.90
10314;DHT22;5202;49.138;10.090;2023-06-10T09:35:45;26.50;75.20
10314;DHT22;5202;49.138;10.090;2023-06-10T09:38:19;26.60;75.40
10314;DHT22;5202;49.138;10.090;2023-06-10T09:40:52;26.60;75.10
10314;DHT22;5202;49.138;10.090;2023-06-10T09:43:22;26.70;74.70
10314;DHT22;5202;49.138;10.090;2023-06-10T09:45:50;26.80;73.40
10314;DHT22;5202;49.138;10.090;2023-06-10T09:48:21;26.90;73.20
10314;DHT22;5202;49.138;10.090;2023-06-10T09:50:50;27.10;74.00
10314;DHT22;5202;49.138;10.090;2023-06-10T09:53:20;27.20;72.30
10314;DHT22;5202;49.138;10.090;2023-06-10T09:55:49;27.10;70.40
10314;DHT22;5202;49.138;10.090;2023-06-10T09:58:18;27.20;72.10
10314;DHT22;5202;49.138;10.090;2023-06-10T10:01:05;27.00;70.60
10314;DHT22;5202;49.138;10.090;2023-06-10T10:03:35;26.90;72.20
10314;DHT22;5202;49.138;10.090;2023-06-10T10:06:12;27.00;70.90
10314;DHT22;5202;49.138;10.090;2023-06-10T10:08:40;26.80;70.60
10314;DHT22;5202;49.138;10.090;2023-06-10T10:11:08;26.90;70.90
10314;DHT22;5202;49.138;10.090;2023-06-10T10:13:39;26.90;71.00
10314;DHT22;5202;49.138;10.090;2023-06-10T10:16:11;26.90;69.30
10314;DHT22;5202;49.138;10.090;2023-06-10T10:18:43;27.00;71.00
10314;DHT22;5202;49.138;10.090;2023-06-10T10:21:15;27.10;71.10
10314;DHT22;5202;49.138;10.090;2023-06-10T10:23:53;27.20;69.40
10314;DHT22;5202;49.138;10.090;2023-06-10T10:26:22;27.30;69.20
10314;DHT22;5202;49.138;10.090;2023-06-10T10:29:02;27.50;68.00
10314;DHT22;5202;49.138;10.090;2023-06-10T10:31:36;27.60;66.70
10314;DHT22;5202;49.138;10.090;2023-06-10T10:34:09;27.70;68.40
10314;DHT22;5202;49.138;10.090;2023-06-10T10:36:41;27.80;68.60
10314;DHT22;5202;49.138;10.090;2023-06-10T10:39:10;27.70;66.40
10314;DHT22;5202;49.138;10.090;2023-06-10T10:41:39;27.60;66.50
10314;DHT22;5202;49.138;10.090;2023-06-10T10:44:09;27.60;68.60
10314;DHT22;5202;49.138;10.090;2023-06-10T10:46:42;27.70;67.80
10314;DHT22;5202;49.138;10.090;2023-06-10T10:49:13;27.60;67.00
10314;DHT22;5202;49.138;10.090;2023-06-10T10:51:55;27.60;70.00
10314;DHT22;5202;49.138;10.090;2023-06-10T10:54:31;27.70;66.90
10314;DHT22;5202;49.138;10.090;2023-06-10T10:57:16;27.80;69.00
10314;DHT22;5202;49.138;10.090;2023-06-10T10:59:57;28.00;68.20
10314;DHT22;5202;49.138;10.090;2023-06-10T11:02:36;28.10;67.70
10314;DHT22;5202;49.138;10.090;2023-06-10T11:05:12;28.20;70.30
10314;DHT22;5202;49.138;10.090;2023-06-10T11:07:52;28.10;67.80
10314;DHT22;5202;49.138;10.090;2023-06-10T11:10:29;28.00;68.00
10314;DHT22;5202;49.138;10.090;2023-06-10T11:12:59;28.00;68.70
10314;DHT22;5202;49.138;10.090;2023-06-10T11:15:29;28.10;67.70
10314;DHT22;5202;49.138;10.090;2023-06-10T11:18:21;28.10;65.60
10314;DHT22;5202;49.138;10.090;2023-06-10T11:21:08;28.40;68.10
10314;DHT22;5202;49.138;10.090;2023-06-10T11:23:41;28.50;66.70
10314;DHT22;5202;49.138;10.090;2023-06-10T11:26:19;28.50;66.80
10314;DHT22;5202;49.138;10.090;2023-06-10T11:29:04;28.40;66.80
10314;DHT22;5202;49.138;10.090;2023-06-10T11:31:55;28.50;66.50
10314;DHT22;5202;49.138;10.090;2023-06-10T11:34:24;28.40;65.40
10314;DHT22;5202;49.138;10.090;2023-06-10T11:36:54;28.30;65.40
10314;DHT22;5202;49.138;10.090;2023-06-10T11:39:22;28.40;66.40
10314;DHT22;5202;49.138;10.090;2023-06-10T11:41:53;28.40;65.60
10314;DHT22;5202;49.138;10.090;2023-06-10T11:44:27;28.50;65.30
10314;DHT22;5202;49.138;10.090;2023-06-10T11:46:58;28.70;66.30
10314;DHT22;5202;49.138;10.090;2023-06-10T11:49:26;28.70;63.60
10314;DHT22;5202;49.138;10.090;2023-06-10T11:51:54;28.40;64.00
10314;DHT22;5202;49.138;10.090;2023-06-10T11:54:23;28.50;64.50
10314;DHT22;5202;49.138;10.090;2023-06-10T11:56:57;28.60;62.70
10314;DHT22;5202;49.138;10.090;2023-06-10T11:59:27;28.40;63.90
10314;DHT22;5202;49.138;10.090;2023-06-10T12:01:57;28.50;65.90
10314;DHT22;5202;49.138;10.090;2023-06-10T12:04:29;28.50;63.70
10314;DHT22;5202;49.138;10.090;2023-06-10T12:06:58;28.40;64.70
10314;DHT22;5202;49.138;10.090;2023-06-10T12:09:30;28.40;64.80
10314;DHT22;5202;49.138;10.090;2023-06-10T12:12:01;28.30;64.40
10314;DHT22;5202;49.138;10.090;2023-06-10T12:14:55;28.30;64.90
10314;DHT22;5202;49.138;10.090;2023-06-10T12:17:37;28.40;63.00
10314;DHT22;5202;49.138;10.090;2023-06-10T12:20:07;28.20;63.50
10314;DHT22;5202;49.138;10.090;2023-06-10T12:22:37;28.10;65.30
10314;DHT22;5202;49.138;10.090;2023-06-10T12:25:07;28.00;64.50
10314;DHT22;5202;49.138;10.090;2023-06-10T12:27:38;27.90;65.00
10314;DHT22;5202;49.138;10.090;2023-06-10T12:30:08;28.00;67.40
10314;DHT22;5202;49.138;10.090;2023-06-10T12:32:41;28.20;68.00
10314;DHT22;5202;49.138;10.090;2023-06-10T12:35:12;28.10;65.20
10314;DHT22;5202;49.138;10.090;2023-06-10T12:37:42;27.90;65.90
10314;DHT22;5202;49.138;10.090;2023-06-10T12:40:11;27.90;66.50
10314;DHT22;5202;49.138;10.090;2023-06-10T12:42:39;27.90;65.20
10314;DHT22;5202;49.138;10.090;2023-06-10T12:45:09;28.00;63.30
10314;DHT22;5202;49.138;10.090;2023-06-10T12:47:41;28.00;65.00
10314;DHT22;5202;49.138;10.090;2023-06-10T12:50:09;28.30;63.50
10314;DHT22;5202;49.138;10.090;2023-06-10T12:52:39;28.60;63.10
10314;DHT22;5202;49.138;10.090;2023-06-10T12:55:09;28.80;63.60
10314;DHT22;5202;49.138;10.090;2023-06-10T12:57:49;28.60;62.60
10314;DHT22;5202;49.138;10.090;2023-06-10T13:00:18;28.50;63.30
10314;DHT22;5202;49.138;10.090;2023-06-10T13:02:49;28.20;62.70
10314;DHT22;5202;49.138;10.090;2023-06-10T13:05:18;28.30;64.20
10314;DHT22;5202;49.138;10.090;2023-06-10T13:07:48;28.60;66.00
10314;DHT22;5202;49.138;10.090;2023-06-10T13:10:17;28.90;64.10
10314;DHT22;5202;49.138;10.090;2023-06-10T13:12:51;29.20;62.50
10314;DHT22;5202;49.138;10.090;2023-06-10T13:15:21;29.20;64.80
10314;DHT22;5202;49.138;10.090;2023-06-10T13:17:50;29.20;63.20
10314;DHT22;5202;49.138;10.090;2023-06-10T13:20:19;29.00;62.60
10314;DHT22;5202;49.138;10.090;2023-06-10T13:22:48;29.10;63.80
10314;DHT22;5202;49.138;10.090;2023-06-10T13:25:17;29.30;62.40
10314;DHT22;5202;49.138;10.090;2023-06-10T13:27:45;29.50;63.90
10314;DHT22;5202;49.138;10.090;2023-06-10T13:30:13;29.70;62.80
10314;DHT22;5202;49.138;10.090;2023-06-10T13:32:42;29.80;62.10
10314;DHT22;5202;49.138;10.090;2023-06-10T13:35:12;29.90;62.50
10314;DHT22;5202;49.138;10.090;2023-06-10T13:37:40;30.00;63.00
10314;DHT22;5202;49.138;10.090;2023-06-10T13:40:09;30.10;62.80
10314;DHT22;5202;49.138;10.090;2023-06-10T13:42:38;30.30;60.80
10314;DHT22;5202;49.138;10.090;2023-06-10T13:45:07;30.30;58.90
10314;DHT22;5202;49.138;10.090;2023-06-10T13:47:36;30.30;58.90
10314;DHT22;5202;49.138;10.090;2023-06-10T13:50:06;30.50;58.90
10314;DHT22;5202;49.138;10.090;2023-06-10T13:52:37;30.50;58.40
10314;DHT22;5202;49.138;10.090;2023-06-10T13:55:05;30.60;59.50
10314;DHT22;5202;49.138;10.090;2023-06-10T13:57:35;30.70;59.00
10314;DHT22;5202;49.138;10.090;2023-06-10T14:00:04;30.70;58.30
10314;DHT22;5202;49.138;10.090;2023-06-10T14:02:33;30.70;58.20
10314;DHT22;5202;49.138;10.090;2023-06-10T14:05:02;30.70;57.70
10314;DHT22;5202;49.138;10.090;2023-06-10T14:07:37;30.70;59.50
10314;DHT22;5202;49.138;10.090;2023-06-10T14:10:07;30.70;58.20
10314;DHT22;5202;49.138;10.090;2023-06-10T14:12:36;30.90;59.80
10314;DHT22;5202;49.138;10.090;2023-06-10T14:15:05;31.00;59.50
10314;DHT22;5202;49.138;10.090;2023-06-10T14:17:35;31.20;58.40
10314;DHT22;5202;49.138;10.090;2023-06-10T14:20:04;31.10;57.00
10314;DHT22;5202;49.138;10.090;2023-06-10T14:22:34;31.00;56.40
10314;DHT22;5202;49.138;10.090;2023-06-10T14:25:04;31.10;57.60
10314;DHT22;5202;49.138;10.090;2023-06-10T14:27:34;31.10;58.40
10314;DHT22;5202;49.138;10.090;2023-06-10T14:30:03;30.80;56.90
10314;DHT22;5202;49.138;10.090;2023-06-10T14:32:32;30.60;58.20
10314;DHT22;5202;49.138;10.090;2023-06-10T14:35:01;30.60;57.10
10314;DHT22;5202;49.138;10.090;2023-06-10T14:37:29;30.60;57.20
10314;DHT22;5202;49.138;10.090;2023-06-10T14:39:58;30.60;57.10
10314;DHT22;5202;49.138;10.090;2023-06-10T14:42:27;30.50;57.10
10314;DHT22;5202;49.138;10.090;2023-06-10T14:44:56;30.60;59.10
10314;DHT22;5202;49.138;10.090;2023-06-10T14:47:24;30.60;58.30
10314;DHT22;5202;49.138;10.090;2023-06-10T14:49:53;30.60;56.10
10314;DHT22;5202;49.138;10.090;2023-06-10T14:52:21;30.60;58.20
10314;DHT22;5202;49.138;10.090;2023-06-10T14:54:49;30.70;59.00
10314;DHT22;5202;49.138;10.090;2023-06-10T14:57:17;30.70;56.60
10314;DHT22;5202;49.138;10.090;2023-06-10T14:59:47;30.40;58.60
10314;DHT22;5202;49.138;10.090;2023-06-10T15:02:15;30.20;57.60
10314;DHT22;5202;49.138;10.090;2023-06-10T15:04:44;30.10;57.90
10314;DHT22;5202;49.138;10.090;2023-06-10T15:07:12;29.80;57.30
10314;DHT22;5202;49.138;10.090;2023-06-10T15:09:42;29.80;58.10
10314;DHT22;5202;49.138;10.090;2023-06-10T15:12:10;29.80;59.70
10314;DHT22;5202;49.138;10.090;2023-06-10T15:14:38;29.80;59.50
10314;DHT22;5202;49.138;10.090;2023-06-10T15:17:08;29.70;58.60
10314;DHT22;5202;49.138;10.090;2023-06-10T15:19:36;29.50;58.70
10314;DHT22;5202;49.138;10.090;2023-06-10T15:22:05;29.40;59.10
10314;DHT22;5202;49.138;10.090;2023-06-10T15:24:33;29.40;59.60
10314;DHT22;5202;49.138;10.090;2023-06-10T15:27:01;29.40;60.70
10314;DHT22;5202;49.138;10.090;2023-06-10T15:29:29;29.30;60.20
10314;DHT22;5202;49.138;10.090;2023-06-10T15:31:58;28.90;61.00
10314;DHT22;5202;49.138;10.090;2023-06-10T15:34:28;28.70;61.50
10314;DHT22;5202;49.138;10.090;2023-06-10T15:36:56;28.50;60.20
10314;DHT22;5202;49.138;10.090;2023-06-10T15:39:24;28.30;60.20
10314;DHT22;5202;49.138;10.090;2023-06-10T15:41:54;28.30;60.80
10314;DHT22;5202;49.138;10.090;2023-06-10T15:44:22;28.30;61.60
10314;DHT22;5202;49.138;10.090;2023-06-10T15:46:50;28.40;61.70
10314;DHT22;5202;49.138;10.090;2023-06-10T15:49:18;28.40;59.50
10314;DHT22;5202;49.138;10.090;2023-06-10T15:51:48;28.40;58.30